Time;durP1;ratioP1;P1;durP2;ratioP2;P2;SDS_P1;SDS_P2;PMS_P1;PMS_P2;Temp;Humidity;BMP_temperature;BMP_pressure;BME280_temperature;BME280_humidity;BME280_pressure;Samples;Min_cycle;Max_cycle;Signal;HPM_P1;HPM_P2
2022/06/11 00:01:54;;;;;;;3.10;1.90;;;19.10;66.20;;;;;;5052438;28;20037;-70
2022/06/11 00:04:33;;;;;;;6.38;2.42;;;19.10;66.10;;;;;;5043780;28;20400;-70
2022/06/11 00:07:07;;;;;;;7.18;2.90;;;19.00;65.90;;;;;;5052544;28;20067;-70
2022/06/11 00:09:33;;;;;;;3.35;1.70;;;19.00;65.90;;;;;;5052475;28;20075;-70
2022/06/11 00:11:59;;;;;;;4.30;1.85;;;19.00;65.80;;;;;;5052033;28;20044;-70
2022/06/11 00:14:29;;;;;;;5.85;2.38;;;19.00;65.70;;;;;;5052376;28;20044;-69
2022/06/11 00:16:55;;;;;;;5.97;2.08;;;18.90;65.50;;;;;;5052070;28;20116;-70
2022/06/11 00:19:21;;;;;;;5.28;2.22;;;18.90;65.50;;;;;;5051953;28;20099;-69
2022/06/11 00:21:49;;;;;;;5.55;2.03;;;18.90;65.50;;;;;;5059173;28;20072;-69
2022/06/11 00:24:16;;;;;;;6.40;1.95;;;18.90;65.50;;;;;;5050329;28;20051;-69
2022/06/11 00:26:44;;;;;;;4.22;1.67;;;18.80;65.40;;;;;;5051879;28;20476;-69
2022/06/11 00:29:11;;;;;;;3.92;1.58;;;18.80;65.30;;;;;;5052157;28;20496;-69
2022/06/11 00:31:38;;;;;;;4.13;1.70;;;18.80;65.30;;;;;;5051954;28;20131;-70
2022/06/11 00:34:03;;;;;;;4.80;2.10;;;18.80;65.20;;;;;;5035261;28;20045;-69
2022/06/11 00:36:30;;;;;;;3.10;1.48;;;18.70;65.70;;;;;;5051834;28;20044;-69
2022/06/11 00:38:56;;;;;;;2.40;1.45;;;18.70;65.30;;;;;;5051950;28;20484;-69
2022/06/11 00:41:25;;;;;;;4.60;1.85;;;18.60;65.20;;;;;;5051775;28;20040;-70
2022/06/11 00:43:53;;;;;;;2.70;1.70;;;18.70;65.30;;;;;;5051543;28;20404;-69
2022/06/11 00:46:49;;;;;;;4.13;2.35;;;18.60;65.30;;;;;;5051986;28;20386;-69
2022/06/11 00:49:49;;;;;;;3.28;1.65;;;18.60;65.10;;;;;;5052028;28;20423;-69
2022/06/11 00:52:36;;;;;;;2.67;1.60;;;18.60;65.20;;;;;;5050589;28;20053;-70
2022/06/11 00:55:10;;;;;;;4.25;1.90;;;18.50;65.20;;;;;;5055257;28;20057;-69
2022/06/11 00:57:43;;;;;;;5.07;2.35;;;18.50;65.30;;;;;;5051406;28;20048;-69
2022/06/11 01:00:17;;;;;;;4.37;2.50;;;18.40;65.30;;;;;;5053125;28;20134;-70
2022/06/11 01:02:43;;;;;;;;;;;18.40;65.40;;;;;;5051487;28;20820;-69
2022/06/11 01:05:16;;;;;;;4.18;2.80;;;18.30;65.10;;;;;;5051579;28;19928;-69
2022/06/11 01:08:20;;;;;;;5.50;3.35;;;18.30;65.70;;;;;;5051406;28;20190;-69
2022/06/11 01:11:30;;;;;;;4.80;2.20;;;18.30;65.80;;;;;;5023667;28;20060;-69
2022/06/11 01:14:09;;;;;;;4.65;2.35;;;18.30;65.90;;;;;;5013627;28;20496;-69
2022/06/11 01:16:50;;;;;;;4.75;2.60;;;18.20;65.90;;;;;;5043714;28;20063;-69
2022/06/11 01:19:53;;;;;;;3.88;2.83;;;18.20;65.90;;;;;;5043486;28;20090;-70
2022/06/11 01:22:56;;;;;;;4.45;2.45;;;18.20;65.90;;;;;;5050966;28;20045;-70
2022/06/11 01:25:42;;;;;;;5.90;2.75;;;18.10;65.90;;;;;;5050772;28;20114;-70
2022/06/11 01:28:34;;;;;;;3.70;2.40;;;18.10;66.10;;;;;;5061467;28;20041;-70
2022/06/11 01:31:16;;;;;;;3.88;2.53;;;18.10;66.10;;;;;;5051322;28;20045;-69
2022/06/11 01:34:09;;;;;;;3.97;2.30;;;18.00;66.10;;;;;;5049186;28;20118;-70
2022/06/11 01:36:43;;;;;;;6.65;2.55;;;18.00;66.10;;;;;;5050766;28;20061;-71
2022/06/11 01:39:48;;;;;;;4.63;2.50;;;18.00;66.30;;;;;;5050633;28;20060;-70
2022/06/11 01:42:30;;;;;;;4.35;2.70;;;17.90;66.10;;;;;;5040850;28;20115;-69
2022/06/11 01:45:20;;;;;;;4.38;3.00;;;17.90;66.30;;;;;;5050912;28;20039;-70
2022/06/11 01:47:47;;;;;;;7.90;3.53;;;17.90;66.20;;;;;;5043169;28;20045;-69
2022/06/11 01:50:17;;;;;;;3.60;2.55;;;17.80;66.50;;;;;;5046195;28;20055;-71
2022/06/11 01:52:51;;;;;;;4.97;2.65;;;17.80;66.50;;;;;;5050248;28;20494;-71
2022/06/11 01:55:44;;;;;;;4.97;2.50;;;17.80;66.50;;;;;;5050318;28;20506;-72
2022/06/11 01:58:32;;;;;;;4.75;2.80;;;17.80;66.50;;;;;;5050744;28;20068;-71
2022/06/11 02:01:21;;;;;;;7.18;3.35;;;17.70;66.40;;;;;;5052375;28;20052;-71
2022/06/11 02:04:07;;;;;;;10.23;2.92;;;17.70;66.50;;;;;;5041551;28;20054;-71
2022/06/11 02:06:49;;;;;;;4.50;2.70;;;17.60;67.00;;;;;;5052119;28;20049;-71
2022/06/11 02:09:43;;;;;;;4.72;2.85;;;17.60;66.70;;;;;;5050859;28;20120;-71
2022/06/11 02:12:17;;;;;;;4.88;2.67;;;17.60;66.60;;;;;;5051088;28;20128;-71
2022/06/11 02:15:21;;;;;;;5.28;3.22;;;17.50;66.70;;;;;;5050463;28;20396;-71
2022/06/11 02:17:51;;;;;;;6.90;3.85;;;17.60;66.80;;;;;;5050268;28;20037;-70
2022/06/11 02:20:22;;;;;;;7.47;3.80;;;17.50;67.00;;;;;;5050344;28;20056;-71
2022/06/11 02:23:20;;;;;;;4.68;3.08;;;17.50;67.00;;;;;;5050493;28;20136;-70
2022/06/11 02:25:53;;;;;;;6.30;2.92;;;17.50;67.10;;;;;;5037782;28;20388;-71
2022/06/11 02:28:26;;;;;;;6.37;3.73;;;17.40;67.10;;;;;;5050473;28;20067;-71
2022/06/11 02:30:54;;;;;;;12.38;3.97;;;17.30;67.10;;;;;;5050415;28;20091;-71
2022/06/11 02:33:21;;;;;;;5.65;3.17;;;17.30;67.20;;;;;;5050548;28;20033;-71
2022/06/11 02:35:50;;;;;;;4.55;2.47;;;17.30;67.20;;;;;;5050449;28;20471;-71
2022/06/11 02:38:19;;;;;;;4.82;2.40;;;17.30;67.20;;;;;;5034127;28;20048;-71
2022/06/11 02:40:50;;;;;;;9.98;4.60;;;17.20;67.20;;;;;;5050533;28;20040;-71
2022/06/11 02:43:17;;;;;;;6.40;3.10;;;17.20;67.40;;;;;;5050591;28;20041;-70
2022/06/11 02:45:43;;;;;;;5.25;2.80;;;17.20;67.50;;;;;;5050613;28;20033;-71
2022/06/11 02:48:10;;;;;;;4.40;2.80;;;17.20;68.00;;;;;;5054290;28;20043;-71
2022/06/11 02:50:36;;;;;;;4.05;2.80;;;17.10;67.90;;;;;;5053457;28;20496;-71
2022/06/11 02:53:05;;;;;;;5.47;3.25;;;17.10;67.50;;;;;;5054200;28;20045;-71
2022/06/11 02:55:31;;;;;;;6.93;3.25;;;17.10;67.60;;;;;;5053462;28;20037;-71
2022/06/11 02:57:58;;;;;;;6.57;3.80;;;17.00;67.70;;;;;;5070822;28;20056;-70
2022/06/11 03:00:31;;;;;;;5.13;3.40;;;17.00;67.80;;;;;;5053483;28;20051;-71
2022/06/11 03:02:58;;;;;;;6.65;3.25;;;17.00;67.80;;;;;;5053203;28;20048;-70
2022/06/11 03:05:26;;;;;;;5.32;3.60;;;17.00;67.90;;;;;;5053330;28;20116;-71
2022/06/11 03:07:52;;;;;;;7.68;3.78;;;16.90;68.00;;;;;;5053684;28;20045;-70
2022/06/11 03:10:21;;;;;;;8.43;4.97;;;16.90;68.00;;;;;;5053463;28;20045;-71
2022/06/11 03:12:47;;;;;;;6.45;4.03;;;16.90;68.20;;;;;;5070118;28;20061;-70
2022/06/11 03:15:15;;;;;;;8.10;6.00;;;16.90;68.20;;;;;;5053162;28;20130;-70
2022/06/11 03:17:42;;;;;;;6.88;4.25;;;16.80;68.30;;;;;;5037547;28;20056;-71
2022/06/11 03:20:09;;;;;;;7.07;4.28;;;16.80;68.50;;;;;;5053274;28;20069;-71
2022/06/11 03:22:35;;;;;;;8.93;6.35;;;16.80;68.60;;;;;;5053148;28;20091;-70
2022/06/11 03:25:01;;;;;;;7.38;5.40;;;16.80;68.70;;;;;;5052804;28;20068;-70
2022/06/11 03:27:27;;;;;;;9.30;5.10;;;16.70;68.80;;;;;;5053193;28;20041;-71
2022/06/11 03:29:52;;;;;;;9.13;5.35;;;16.70;68.80;;;;;;5052869;28;20040;-70
2022/06/11 03:32:19;;;;;;;6.60;4.60;;;16.70;68.90;;;;;;5053426;28;20037;-71
2022/06/11 03:34:46;;;;;;;8.77;5.80;;;16.70;68.90;;;;;;5052847;28;20045;-71
2022/06/11 03:37:12;;;;;;;6.03;4.20;;;16.70;68.90;;;;;;5053262;28;20072;-71
2022/06/11 03:39:39;;;;;;;7.78;5.78;;;16.60;68.80;;;;;;5052713;28;20067;-70
2022/06/11 03:42:06;;;;;;;7.97;4.85;;;16.60;68.90;;;;;;5052809;28;20132;-70
2022/06/11 03:44:32;;;;;;;7.28;5.43;;;16.60;68.90;;;;;;5053153;28;20032;-71
2022/06/11 03:46:58;;;;;;;6.80;5.38;;;16.60;69.00;;;;;;5052957;28;20041;-70
2022/06/11 03:49:24;;;;;;;8.20;5.25;;;16.60;69.00;;;;;;5052360;28;20377;-71
2022/06/11 03:51:50;;;;;;;7.13;5.00;;;16.60;69.10;;;;;;5052726;28;20044;-71
2022/06/11 03:54:17;;;;;;;6.93;5.18;;;16.60;69.10;;;;;;5052426;28;20036;-70
2022/06/11 03:56:44;;;;;;;7.63;6.13;;;16.60;69.10;;;;;;5052430;28;20060;-70
2022/06/11 03:59:10;;;;;;;7.40;5.38;;;16.50;69.20;;;;;;5052870;28;20541;-70
2022/06/11 04:01:37;;;;;;;7.95;5.05;;;16.50;69.20;;;;;;5052415;28;20127;-70
2022/06/11 04:04:10;;;;;;;7.47;5.90;;;16.50;69.10;;;;;;5052427;28;20170;-70
2022/06/11 04:06:40;;;;;;;10.98;6.22;;;16.50;69.20;;;;;;5052473;28;20045;-70
2022/06/11 04:09:10;;;;;;;9.13;5.97;;;16.50;69.40;;;;;;5052608;28;20118;-70
2022/06/11 04:11:36;;;;;;;7.20;4.70;;;16.50;69.50;;;;;;5052589;28;20099;-69
2022/06/11 04:14:01;;;;;;;9.30;4.40;;;16.50;69.50;;;;;;5052593;28;20496;-70
2022/06/11 04:16:41;;;;;;;10.15;4.55;;;16.50;69.50;;;;;;5063921;28;20128;-70
2022/06/11 04:19:11;;;;;;;7.75;4.63;;;16.50;69.50;;;;;;5051859;28;20052;-70
2022/06/11 04:21:37;;;;;;;6.63;4.40;;;16.50;69.50;;;;;;5052243;28;20435;-70
2022/06/11 04:24:04;;;;;;;8.23;3.90;;;16.50;69.50;;;;;;5052230;28;20132;-70
2022/06/11 04:26:35;;;;;;;9.88;5.22;;;16.50;69.50;;;;;;5051861;28;20033;-70
2022/06/11 04:29:02;;;;;;;13.05;4.90;;;16.50;69.50;;;;;;5053141;28;20041;-69
2022/06/11 04:31:31;;;;;;;10.73;4.45;;;16.40;69.40;;;;;;5051251;28;20041;-70
2022/06/11 04:33:57;;;;;;;10.43;4.30;;;16.50;69.40;;;;;;5051884;28;20076;-70
2022/06/11 04:36:25;;;;;;;8.23;3.83;;;16.40;69.40;;;;;;5035032;28;20113;-70
2022/06/11 04:38:51;;;;;;;6.25;3.08;;;16.40;69.40;;;;;;5051944;28;20524;-70
2022/06/11 04:41:17;;;;;;;9.43;3.20;;;16.50;69.40;;;;;;5052918;28;20036;-70
2022/06/11 04:43:43;;;;;;;9.68;3.58;;;16.40;69.40;;;;;;5051839;28;20567;-70
2022/06/11 04:46:09;;;;;;;10.95;4.60;;;16.50;69.50;;;;;;5051432;28;20119;-69
2022/06/11 04:48:36;;;;;;;8.05;3.42;;;16.50;69.50;;;;;;5051648;28;20025;-70
2022/06/11 04:51:02;;;;;;;9.25;2.85;;;16.40;69.40;;;;;;5051187;28;20044;-70
2022/06/11 04:53:28;;;;;;;12.85;4.43;;;16.50;69.50;;;;;;5051194;28;20040;-70
2022/06/11 04:55:53;;;;;;;10.50;3.95;;;16.50;69.60;;;;;;5051697;28;20488;-71
2022/06/11 04:58:20;;;;;;;9.95;3.50;;;16.50;69.60;;;;;;5051753;28;20048;-70
2022/06/11 05:00:46;;;;;;;12.13;3.30;;;16.50;69.60;;;;;;5050818;28;20041;-70
2022/06/11 05:03:12;;;;;;;11.55;3.67;;;16.50;70.20;;;;;;5051532;28;20080;-71
2022/06/11 05:05:37;;;;;;;12.85;3.88;;;16.50;69.80;;;;;;5047306;28;20064;-70
2022/06/11 05:08:04;;;;;;;13.05;4.10;;;16.60;70.00;;;;;;5051058;28;20088;-70
2022/06/11 05:10:34;;;;;;;10.32;3.95;;;16.60;70.20;;;;;;5050771;28;20041;-71
2022/06/11 05:13:01;;;;;;;11.77;3.78;;;16.70;70.50;;;;;;5034596;28;20055;-71
2022/06/11 05:15:26;;;;;;;11.82;4.35;;;16.70;71.00;;;;;;5051443;28;20044;-70
2022/06/11 05:17:52;;;;;;;13.25;3.17;;;16.90;71.10;;;;;;5051103;28;20049;-70
2022/06/11 05:20:19;;;;;;;11.25;3.50;;;17.10;71.70;;;;;;5050931;28;20047;-69
2022/06/11 05:22:46;;;;;;;10.02;3.05;;;17.30;70.90;;;;;;5051010;28;20115;-70
2022/06/11 05:25:13;;;;;;;17.30;4.10;;;17.60;70.70;;;;;;5050633;28;20040;-71
2022/06/11 05:27:42;;;;;;;8.95;3.45;;;18.00;69.70;;;;;;5050907;28;20075;-71
2022/06/11 05:30:12;;;;;;;13.82;3.63;;;18.40;69.00;;;;;;5050796;28;20052;-66
2022/06/11 05:32:40;;;;;;;11.90;3.25;;;18.80;68.30;;;;;;5034494;28;20066;-70
2022/06/11 05:35:08;;;;;;;15.43;4.03;;;19.10;67.60;;;;;;5051223;28;20043;-66
2022/06/11 05:37:34;;;;;;;13.85;4.85;;;19.50;66.10;;;;;;5051053;28;20036;-70
2022/06/11 05:40:00;;;;;;;10.70;2.70;;;19.90;65.10;;;;;;5050735;28;20616;-70
2022/06/11 05:42:26;;;;;;;11.38;3.85;;;20.30;64.00;;;;;;5034160;28;20124;-71
2022/06/11 05:44:53;;;;;;;14.18;3.33;;;20.60;63.20;;;;;;5051127;28;20107;-70
2022/06/11 05:47:22;;;;;;;9.52;3.13;;;20.90;62.10;;;;;;5050624;28;20515;-71
2022/06/11 05:49:52;;;;;;;14.23;3.90;;;21.20;61.60;;;;;;5050994;28;20033;-71
2022/06/11 05:52:26;;;;;;;11.80;4.00;;;21.50;60.20;;;;;;5050827;28;20044;-72
2022/06/11 05:54:53;;;;;;;9.45;3.10;;;21.80;59.90;;;;;;5050812;28;20068;-66
2022/06/11 05:57:23;;;;;;;11.55;3.70;;;22.10;59.30;;;;;;5050881;28;20028;-66
2022/06/11 05:59:54;;;;;;;11.70;2.70;;;22.40;58.40;;;;;;5034393;28;20080;-66
2022/06/11 06:02:22;;;;;;;13.35;3.67;;;22.70;58.00;;;;;;5050809;28;20067;-65
2022/06/11 06:04:48;;;;;;;12.88;3.70;;;22.90;57.50;;;;;;5046224;28;20569;-66
2022/06/11 06:07:13;;;;;;;13.38;3.42;;;23.10;57.20;;;;;;5038676;28;20041;-66
2022/06/11 06:09:39;;;;;;;14.07;4.00;;;23.50;56.80;;;;;;5050970;28;20071;-66
2022/06/11 06:12:06;;;;;;;14.00;3.88;;;23.70;56.00;;;;;;5050830;28;20445;-66
2022/06/11 06:14:32;;;;;;;11.50;4.28;;;23.90;55.50;;;;;;5050900;28;20084;-66
2022/06/11 06:16:58;;;;;;;14.70;4.25;;;24.10;54.80;;;;;;5051462;28;20060;-65
2022/06/11 06:19:24;;;;;;;13.35;4.20;;;24.20;54.50;;;;;;5050505;28;20045;-65
2022/06/11 06:21:50;;;;;;;14.65;4.53;;;24.40;53.60;;;;;;5053309;28;20033;-66
2022/06/11 06:24:16;;;;;;;13.45;3.92;;;24.50;53.30;;;;;;5054017;28;20477;-65
2022/06/11 06:26:41;;;;;;;14.88;4.90;;;24.60;52.70;;;;;;5053838;28;20048;-65
2022/06/11 06:29:07;;;;;;;15.95;4.97;;;24.70;52.40;;;;;;5053458;28;20040;-65
2022/06/11 06:31:33;;;;;;;13.63;3.95;;;24.90;52.20;;;;;;5054984;28;20051;-65
2022/06/11 06:34:01;;;;;;;15.98;4.43;;;25.00;51.90;;;;;;5054544;28;20123;-65
2022/06/11 06:36:28;;;;;;;15.45;4.90;;;25.10;51.90;;;;;;5070059;28;20048;-65
2022/06/11 06:38:55;;;;;;;13.75;4.28;;;25.20;51.80;;;;;;5054655;28;20036;-66
2022/06/11 06:41:21;;;;;;;14.20;4.00;;;25.30;51.50;;;;;;5054314;28;20045;-65
2022/06/11 06:43:48;;;;;;;14.95;3.75;;;25.40;50.90;;;;;;5037426;28;20044;-65
2022/06/11 06:46:15;;;;;;;17.05;3.95;;;25.50;50.70;;;;;;5037451;28;20041;-65
2022/06/11 06:48:42;;;;;;;15.52;3.80;;;25.60;50.90;;;;;;5054088;28;20041;-69
2022/06/11 06:51:08;;;;;;;15.55;5.00;;;25.70;50.40;;;;;;5053588;28;20045;-69
2022/06/11 06:53:36;;;;;;;19.30;5.00;;;25.80;49.80;;;;;;5037619;28;20051;-69
2022/06/11 06:56:03;;;;;;;15.73;4.00;;;25.90;49.70;;;;;;5052370;28;20033;-69
2022/06/11 06:58:29;;;;;;;15.77;4.03;;;25.90;49.60;;;;;;5054092;28;20365;-69
2022/06/11 07:00:55;;;;;;;14.88;4.13;;;26.00;49.50;;;;;;5067238;28;20052;-69
2022/06/11 07:03:21;;;;;;;16.52;4.25;;;26.10;49.20;;;;;;5053723;28;20041;-69
2022/06/11 07:05:51;;;;;;;15.30;4.28;;;26.20;49.10;;;;;;5053203;28;20443;-69
2022/06/11 07:08:18;;;;;;;14.00;4.80;;;26.30;48.80;;;;;;5053582;28;20477;-69
2022/06/11 07:10:49;;;;;;;13.45;4.00;;;26.40;49.10;;;;;;5053868;28;20040;-72
2022/06/11 07:13:15;;;;;;;18.90;5.50;;;26.40;48.80;;;;;;5053640;28;20052;-69
2022/06/11 07:15:42;;;;;;;15.48;4.25;;;26.50;48.50;;;;;;5053735;28;20095;-70
2022/06/11 07:18:18;;;;;;;16.60;5.30;;;26.50;48.20;;;;;;5053409;28;20047;-69
2022/06/11 07:20:46;;;;;;;17.77;5.10;;;26.60;47.80;;;;;;5053180;28;20044;-69
2022/06/11 07:23:11;;;;;;;14.82;4.22;;;26.70;47.90;;;;;;5053194;28;20057;-69
2022/06/11 07:25:39;;;;;;;13.30;3.80;;;26.80;47.50;;;;;;5053457;28;20037;-69
2022/06/11 07:28:13;;;;;;;16.42;4.85;;;26.90;47.00;;;;;;5053095;28;20037;-69
2022/06/11 07:30:41;;;;;;;13.93;4.18;;;27.00;47.00;;;;;;5034602;28;20049;-69
2022/06/11 07:33:11;;;;;;;14.98;4.72;;;27.10;46.90;;;;;;5035970;28;20045;-69
2022/06/11 07:35:38;;;;;;;16.40;4.70;;;27.20;46.40;;;;;;5033530;28;20052;-71
2022/06/11 07:38:08;;;;;;;12.98;4.53;;;27.20;46.50;;;;;;5052238;28;20052;-69
2022/06/11 07:40:34;;;;;;;13.32;4.38;;;27.20;46.40;;;;;;5052712;28;20040;-69
2022/06/11 07:43:00;;;;;;;14.52;4.28;;;27.30;46.50;;;;;;5052807;28;20044;-69
2022/06/11 07:45:26;;;;;;;12.07;4.10;;;27.40;46.40;;;;;;5052269;28;20048;-69
2022/06/11 07:47:55;;;;;;;14.95;4.20;;;27.50;45.50;;;;;;5036422;28;20037;-69
2022/06/11 07:50:27;;;;;;;13.60;4.15;;;27.60;45.00;;;;;;5052291;28;20037;-70
2022/06/11 07:52:53;;;;;;;11.25;3.42;;;27.60;45.10;;;;;;5052391;28;20045;-70
2022/06/11 07:55:19;;;;;;;15.25;4.03;;;27.70;44.80;;;;;;5054689;28;20057;-70
2022/06/11 07:57:45;;;;;;;13.13;3.95;;;27.80;45.10;;;;;;5059843;28;20045;-70
2022/06/11 08:00:14;;;;;;;13.50;3.92;;;27.80;44.70;;;;;;5058307;28;20041;-70
2022/06/11 08:02:40;;;;;;;13.45;3.95;;;27.90;44.60;;;;;;5037268;28;20049;-70
2022/06/11 08:05:06;;;;;;;16.38;4.95;;;28.00;45.10;;;;;;5051584;28;20190;-71
2022/06/11 08:07:32;;;;;;;14.63;4.47;;;28.10;44.70;;;;;;5052165;28;20645;-70
2022/06/11 08:09:58;;;;;;;15.40;4.40;;;28.20;44.30;;;;;;5049137;28;20048;-71
2022/06/11 08:12:25;;;;;;;15.35;4.43;;;28.30;44.40;;;;;;5049569;28;20404;-71
2022/06/11 08:14:56;;;;;;;14.18;4.47;;;28.30;44.30;;;;;;5052273;28;20075;-70
2022/06/11 08:17:26;;;;;;;14.43;4.30;;;28.40;43.90;;;;;;5051896;28;20061;-70
2022/06/11 08:19:53;;;;;;;14.93;4.90;;;28.40;43.70;;;;;;5052804;28;20477;-70
2022/06/11 08:22:20;;;;;;;13.85;4.28;;;28.40;43.60;;;;;;5050596;28;20056;-71
2022/06/11 08:24:46;;;;;;;12.10;3.63;;;28.40;43.20;;;;;;5051698;28;20117;-72
2022/06/11 08:27:11;;;;;;;13.70;3.97;;;28.40;42.90;;;;;;5051924;28;20047;-70
2022/06/11 08:29:37;;;;;;;13.73;4.13;;;28.40;43.00;;;;;;5051031;28;20104;-70
2022/06/11 08:32:05;;;;;;;12.02;3.80;;;28.50;43.10;;;;;;5051775;28;20063;-71
2022/06/11 08:34:35;;;;;;;14.88;3.35;;;28.60;42.60;;;;;;5051324;28;20553;-71
2022/06/11 08:37:00;;;;;;;11.50;3.83;;;28.60;42.00;;;;;;5051530;28;20496;-70
2022/06/11 08:39:26;;;;;;;14.35;4.22;;;28.70;42.10;;;;;;5051282;28;20083;-71
2022/06/11 08:41:52;;;;;;;12.55;3.78;;;28.70;42.30;;;;;;5051524;28;20063;-70
2022/06/11 08:44:17;;;;;;;15.75;4.80;;;28.80;42.10;;;;;;5050614;28;20045;-71
2022/06/11 08:46:46;;;;;;;13.88;3.70;;;28.90;42.00;;;;;;5050333;28;20079;-70
2022/06/11 08:49:18;;;;;;;12.52;3.25;;;29.00;41.90;;;;;;5035454;28;20033;-71
2022/06/11 08:51:52;;;;;;;13.25;4.18;;;29.10;41.70;;;;;;5050929;28;20369;-70
2022/06/11 08:54:23;;;;;;;11.38;3.88;;;29.20;41.40;;;;;;5051316;28;20480;-70
2022/06/11 08:57:26;;;;;;;12.32;3.75;;;29.30;41.20;;;;;;5065278;28;20054;-69
2022/06/11 09:00:14;;;;;;;9.55;3.15;;;29.40;41.50;;;;;;5051487;28;20439;-70
2022/06/11 09:03:01;;;;;;;12.18;3.80;;;29.50;41.20;;;;;;5051106;28;20064;-72
2022/06/11 09:06:07;;;;;;;10.82;3.38;;;29.50;40.40;;;;;;5060244;28;20068;-70
2022/06/11 09:08:56;;;;;;;11.63;3.65;;;29.70;39.80;;;;;;5045954;28;20045;-70
2022/06/11 09:11:31;;;;;;;12.52;4.32;;;29.70;39.70;;;;;;5064046;28;20119;-71
2022/06/11 09:14:46;;;;;;;9.35;3.38;;;29.80;38.70;;;;;;5066482;28;20040;-72
2022/06/11 09:17:31;;;;;;;9.40;3.22;;;29.80;39.70;;;;;;5007321;28;20088;-70
2022/06/11 09:20:13;;;;;;;10.05;3.50;;;29.80;38.00;;;;;;5054657;28;20090;-70
2022/06/11 09:22:51;;;;;;;13.20;2.90;;;29.80;37.70;;;;;;5049557;28;20057;-70
2022/06/11 09:25:42;;;;;;;9.48;2.42;;;29.80;38.30;;;;;;5050916;28;20484;-71
2022/06/11 09:28:20;;;;;;;11.05;3.33;;;29.70;37.90;;;;;;5051878;28;20040;-70
2022/06/11 09:30:56;;;;;;;8.85;2.60;;;29.60;37.60;;;;;;5064619;28;20480;-70
2022/06/11 09:33:46;;;;;;;13.82;4.18;;;29.50;36.90;;;;;;5049306;28;20037;-72
2022/06/11 09:36:20;;;;;;;9.93;2.83;;;29.30;37.40;;;;;;5051058;28;20041;-72
2022/06/11 09:39:14;;;;;;;8.15;2.85;;;29.10;37.60;;;;;;5050684;28;20528;-71
2022/06/11 09:41:58;;;;;;;10.90;3.80;;;29.00;38.40;;;;;;5050781;28;20048;-73
2022/06/11 09:44:36;;;;;;;10.18;3.75;;;29.00;38.50;;;;;;5050242;28;20045;-73
2022/06/11 09:47:07;;;;;;;11.80;3.25;;;28.80;38.00;;;;;;5048995;28;20033;-72
2022/06/11 09:49:51;;;;;;;7.68;2.85;;;28.80;37.70;;;;;;5051402;28;20041;-73
2022/06/11 09:52:37;;;;;;;12.77;3.13;;;28.70;38.20;;;;;;5058784;28;20121;-72
2022/06/11 09:55:31;;;;;;;11.70;2.85;;;28.60;37.80;;;;;;5065759;28;20478;-72
2022/06/11 09:58:15;;;;;;;9.85;3.13;;;28.50;37.60;;;;;;5070651;28;20056;-72
2022/06/11 10:00:49;;;;;;;10.82;2.55;;;28.30;37.10;;;;;;5069880;28;20139;-73
2022/06/11 10:03:29;;;;;;;6.93;2.78;;;28.20;37.30;;;;;;5069860;28;20474;-69
2022/06/11 10:05:58;;;;;;;8.88;2.88;;;28.10;37.90;;;;;;5067148;28;20044;-70
2022/06/11 10:08:38;;;;;;;7.13;2.65;;;28.00;38.20;;;;;;5068324;28;20036;-69
2022/06/11 10:11:10;;;;;;;10.65;3.30;;;27.90;38.60;;;;;;5067601;28;20652;-69
2022/06/11 10:13:56;;;;;;;11.10;3.53;;;27.80;38.70;;;;;;5068407;28;20087;-69
2022/06/11 10:16:37;;;;;;;8.07;3.17;;;27.70;38.30;;;;;;5068565;28;20383;-69
2022/06/11 10:19:18;;;;;;;9.40;2.97;;;27.60;38.40;;;;;;5068410;28;20075;-69
2022/06/11 10:21:54;;;;;;;8.43;2.55;;;27.40;38.30;;;;;;5068266;28;20037;-69
2022/06/11 10:24:21;;;;;;;11.50;2.95;;;27.40;38.60;;;;;;5070168;28;20089;-70
2022/06/11 10:26:53;;;;;;;9.90;3.20;;;27.30;38.70;;;;;;5067681;28;21446;-73
2022/06/11 10:29:31;;;;;;;11.52;3.45;;;27.30;38.60;;;;;;5069136;28;20472;-72
2022/06/11 10:32:23;;;;;;;12.35;3.22;;;27.30;38.50;;;;;;5066840;28;20433;-72
2022/06/11 10:34:59;;;;;;;9.98;3.17;;;27.30;39.00;;;;;;5069249;28;20543;-74
2022/06/11 10:37:48;;;;;;;14.18;4.00;;;27.30;39.40;;;;;;5064926;28;20117;-73
2022/06/11 10:40:22;;;;;;;14.43;3.60;;;27.20;39.40;;;;;;5064109;28;20500;-73
2022/06/11 10:43:09;;;;;;;13.45;3.97;;;27.20;40.00;;;;;;5063850;28;20048;-73
2022/06/11 10:45:35;;;;;;;7.90;2.58;;;27.10;38.30;;;;;;5067534;28;20495;-73
2022/06/11 10:48:03;;;;;;;11.35;3.25;;;27.00;38.40;;;;;;5067723;28;20055;-73
2022/06/11 10:50:34;;;;;;;8.20;2.28;;;26.90;38.30;;;;;;5067464;28;20048;-73
2022/06/11 10:53:25;;;;;;;11.02;3.33;;;26.80;39.30;;;;;;5063078;28;20059;-77
2022/06/11 10:55:59;;;;;;;11.13;3.35;;;26.70;39.70;;;;;;5064985;28;20124;-73
2022/06/11 10:58:39;;;;;;;12.65;3.35;;;26.60;39.40;;;;;;5065280;28;20052;-73
2022/06/11 11:01:41;;;;;;;10.68;3.22;;;26.60;39.10;;;;;;5051479;28;20044;-73
2022/06/11 11:04:13;;;;;;;10.95;3.30;;;26.50;39.20;;;;;;5048657;28;20055;-73
2022/06/11 11:06:41;;;;;;;10.68;3.38;;;26.30;38.70;;;;;;5064024;28;20048;-72
2022/06/11 11:09:21;;;;;;;13.93;3.70;;;26.20;39.50;;;;;;5065241;28;20494;-73
2022/06/11 11:11:52;;;;;;;8.63;2.97;;;26.20;39.40;;;;;;5065472;28;20066;-72
2022/06/11 11:14:33;;;;;;;10.18;3.53;;;26.10;39.80;;;;;;5063077;28;20109;-72
2022/06/11 11:17:05;;;;;;;12.23;2.95;;;26.00;40.00;;;;;;5080460;28;20036;-72
2022/06/11 11:19:41;;;;;;;10.43;3.40;;;26.00;40.00;;;;;;5063634;28;20086;-72
2022/06/11 11:22:06;;;;;;;10.50;3.38;;;26.00;39.60;;;;;;5067544;28;20045;-73
2022/06/11 11:24:37;;;;;;;13.98;3.65;;;25.90;40.60;;;;;;5061246;28;20043;-72
2022/06/11 11:27:20;;;;;;;10.45;3.25;;;25.90;40.60;;;;;;5067555;28;20127;-71
2022/06/11 11:29:55;;;;;;;13.50;3.93;;;25.80;40.40;;;;;;5061452;28;20094;-72
2022/06/11 11:32:37;;;;;;;10.20;3.30;;;25.80;40.50;;;;;;5079109;28;20298;-75
2022/06/11 11:35:24;;;;;;;8.32;3.05;;;25.80;40.80;;;;;;5066662;28;20474;-75
2022/06/11 11:38:22;;;;;;;10.30;2.90;;;25.90;40.40;;;;;;5062958;28;20044;-75
2022/06/11 11:40:50;;;;;;;9.25;3.03;;;25.80;39.80;;;;;;5053606;28;20041;-75
2022/06/11 11:43:17;;;;;;;11.63;3.00;;;25.80;39.90;;;;;;5059825;28;20053;-72
2022/06/11 11:45:46;;;;;;;9.45;3.00;;;25.70;40.50;;;;;;5043203;28;20112;-72
2022/06/11 11:48:24;;;;;;;15.18;3.47;;;25.70;40.20;;;;;;5050820;28;20071;-71
2022/06/11 11:51:05;;;;;;;10.50;3.22;;;25.70;39.80;;;;;;5053198;28;20040;-72
2022/06/11 11:53:43;;;;;;;10.68;3.30;;;25.60;39.80;;;;;;5036227;28;20132;-72
2022/06/11 11:56:44;;;;;;;9.18;3.25;;;25.50;40.40;;;;;;5053382;28;20080;-72
2022/06/11 11:59:22;;;;;;;8.75;2.47;;;25.50;40.60;;;;;;5031284;28;20513;-72
2022/06/11 12:01:50;;;;;;;11.43;2.95;;;25.40;40.80;;;;;;5052985;28;20049;-72
2022/06/11 12:04:24;;;;;;;12.88;4.25;;;25.40;40.50;;;;;;5050286;28;20037;-73
2022/06/11 12:06:55;;;;;;;10.10;2.95;;;25.40;40.40;;;;;;5021739;28;20523;-72
2022/06/11 12:09:36;;;;;;;11.40;3.67;;;25.40;40.10;;;;;;5049641;28;20036;-72
2022/06/11 12:12:21;;;;;;;8.88;2.60;;;25.40;40.50;;;;;;5049948;28;20504;-74
2022/06/11 12:14:54;;;;;;;11.18;2.97;;;25.30;40.30;;;;;;5051085;28;20041;-75
2022/06/11 12:17:41;;;;;;;11.95;3.45;;;25.30;41.10;;;;;;5052616;28;20071;-76
2022/06/11 12:20:33;;;;;;;12.48;3.78;;;25.30;40.90;;;;;;5052506;28;20373;-69
2022/06/11 12:23:30;;;;;;;11.85;3.47;;;25.30;40.30;;;;;;5047595;28;20056;-72
2022/06/11 12:26:27;;;;;;;10.85;3.45;;;25.30;41.10;;;;;;5047244;28;20056;-68
2022/06/11 12:29:19;;;;;;;11.32;3.03;;;25.30;41.20;;;;;;5051524;28;20045;-70
2022/06/11 12:31:45;;;;;;;11.63;3.38;;;25.20;40.50;;;;;;5050099;28;20060;-69
2022/06/11 12:34:19;;;;;;;10.23;3.17;;;25.20;40.70;;;;;;5035222;28;20095;-70
2022/06/11 12:37:12;;;;;;;11.02;3.05;;;25.20;41.20;;;;;;5052596;28;20435;-70
2022/06/11 12:39:55;;;;;;;9.60;3.47;;;25.20;41.40;;;;;;5051971;28;20105;-69
2022/06/11 12:42:36;;;;;;;13.13;3.95;;;25.20;41.50;;;;;;5051471;28;20045;-69
2022/06/11 12:45:20;;;;;;;12.52;3.55;;;25.20;41.20;;;;;;5035389;28;20049;-69
2022/06/11 12:47:48;;;;;;;7.88;2.60;;;25.20;41.30;;;;;;5051784;28;20033;-69
2022/06/11 12:50:32;;;;;;;11.25;2.70;;;25.20;41.20;;;;;;5051709;28;20048;-74
2022/06/11 12:53:06;;;;;;;10.80;2.47;;;25.20;40.50;;;;;;5047970;28;20033;-68
2022/06/11 12:56:04;;;;;;;9.70;2.75;;;25.20;40.60;;;;;;5050922;28;20094;-68
2022/06/11 12:58:36;;;;;;;9.10;2.92;;;25.20;40.20;;;;;;5051751;28;20047;-69
2022/06/11 13:01:20;;;;;;;14.37;3.57;;;25.20;40.70;;;;;;5034219;28;20065;-67
2022/06/11 13:03:55;;;;;;;10.93;2.80;;;25.20;40.30;;;;;;5040950;28;20512;-67
2022/06/11 13:06:36;;;;;;;12.43;3.30;;;25.10;40.50;;;;;;5051129;28;20487;-66
2022/06/11 13:09:28;;;;;;;8.38;2.60;;;25.10;40.90;;;;;;5050633;28;20037;-67
2022/06/11 13:12:19;;;;;;;9.73;2.60;;;25.10;41.00;;;;;;5047868;28;20072;-68
2022/06/11 13:15:42;;;;;;;10.07;2.90;;;25.10;42.30;;;;;;5047034;28;20045;-68